Time,TemperatureF,DewpointF,PressureIn,WindDirection,WindDirectionDegrees,WindSpeedMPH,WindSpeedGustMPH,Humidity,HourlyPrecipIn,Conditions,Clouds,dailyrainin,SoftwareType,DateUTC
2013-10-28 00:01:00,45.8,38.3,30.13,NW,313,0.2,1.0,75,0.00,NA,NA,0.00,WeatherLink_script,2013-10-28 04:01:00,
2013-10-28 00:02:00,45.8,38.7,30.12,NW,313,0.2,1.0,76,0.00,NA,NA,0.00,WeatherLink_script,2013-10-28 04:02:00,
2013-10-28 00:04:00,45.9,38.8,30.12,NW,313,0.1,1.0,76,0.00,NA,NA,0.00,WeatherLink_script,2013-10-28 04:04:00,
2013-10-28 00:06:00,45.9,38.4,30.12,NW,313,0.6,2.0,75,0.00,NA,NA,0.00,WeatherLink_script,2013-10-28 04:06:00,
2013-10-28 00:10:00,46.1,38.6,30.12,NNW,335,0.3,2.0,75,0.00,NA,NA,0.00,WeatherLink_script,2013-10-28 04:10:00,
2013-10-28 00:11:00,46.1,38.6,30.12,NNW,343,0.5,2.0,75,0.00,NA,NA,0.00,WeatherLink_script,2013-10-28 04:11:00,
2013-10-28 00:16:00,46.2,38.7,30.13,NNW,348,0.3,2.0,75,0.00,NA,NA,0.00,WeatherLink_script,2013-10-28 04:16:00,
2013-10-28 00:21:00,46.2,38.8,30.12,NNW,348,0.1,1.0,75,0.00,NA,NA,0.00,WeatherLink_script,2013-10-28 04:21:00,
2013-10-28 00:26:00,46.1,39.0,30.13,NNW,348,0.1,1.0,76,0.00,NA,NA,0.00,WeatherLink_script,2013-10-28 04:26:00,
2013-10-28 00:31:00,46.0,38.8,30.13,NNW,348,0.1,1.0,76,0.00,NA,NA,0.00,WeatherLink_script,2013-10-28 04:31:00,
2013-10-28 00:36:00,45.8,38.7,30.13,NNW,348,0.9,4.0,76,0.00,NA,NA,0.00,WeatherLink_script,2013-10-28 04:36:00,
2013-10-28 00:41:00,45.8,38.3,30.13,NNW,348,0.4,2.0,75,0.00,NA,NA,0.00,WeatherLink_script,2013-10-28 04:41:00,
2013-10-28 00:46:00,45.8,38.3,30.13,NNW,348,0.0,0.0,75,0.00,NA,NA,0.00,WeatherLink_script,2013-10-28 04:46:00,
2013-10-28 00:51:00,45.7,38.2,30.13,NNW,348,0.3,2.0,75,0.00,NA,NA,0.00,WeatherLink_script,2013-10-28 04:51:00,
2013-10-28 00:56:00,45.5,38.4,30.12,NNW,348,0.0,0.0,76,0.00,NA,NA,0.00,WeatherLink_script,2013-10-28 04:56:00,
2013-10-28 01:01:00,45.4,38.6,30.13,NNW,348,0.0,0.0,77,0.00,NA,NA,0.00,WeatherLink_script,2013-10-28 05:01:00,
2013-10-28 01:06:00,45.1,38.3,30.13,NNW,348,0.0,0.0,77,0.00,NA,NA,0.00,WeatherLink_script,2013-10-28 05:06:00,
2013-10-28 01:11:00,44.9,38.1,30.12,NNW,348,0.2,1.0,77,0.00,NA,NA,0.00,WeatherLink_script,2013-10-28 05:11:00,
2013-10-28 01:16:00,44.9,38.5,30.12,NNW,348,0.1,1.0,78,0.00,NA,NA,0.00,WeatherLink_script,2013-10-28 05:16:00,
2013-10-28 01:21:00,44.7,38.3,30.13,NNW,348,0.0,0.0,78,0.00,NA,NA,0.00,WeatherLink_script,2013-10-28 05:21:00,
2013-10-28 01:26:00,44.6,37.8,30.13,NNW,348,0.0,0.0,77,0.00,NA,NA,0.00,WeatherLink_script,2013-10-28 05:26:00,
2013-10-28 01:31:00,44.4,37.7,30.13,NNW,348,0.0,0.0,77,0.00,NA,NA,0.00,WeatherLink_script,2013-10-28 05:31:00,
2013-10-28 01:36:00,44.3,37.9,30.13,NNW,348,0.0,0.0,78,0.00,NA,NA,0.00,WeatherLink_script,2013-10-28 05:36:00,
2013-10-28 01:41:00,44.3,37.9,30.13,NNW,348,0.0,0.0,78,0.00,NA,NA,0.00,WeatherLink_script,2013-10-28 05:41:00,
2013-10-28 01:46:00,44.1,37.7,30.13,NNW,348,0.0,0.0,78,0.00,NA,NA,0.00,WeatherLink_script,2013-10-28 05:46:00,
2013-10-28 01:51:00,44.0,37.9,30.13,NNW,348,0.0,0.0,79,0.00,NA,NA,0.00,WeatherLink_script,2013-10-28 05:51:00,
2013-10-28 01:56:00,43.9,37.8,30.13,NNW,348,0.0,0.0,79,0.00,NA,NA,0.00,WeatherLink_script,2013-10-28 05:56:00,
2013-10-28 02:01:00,43.7,37.3,30.13,NNW,348,0.0,0.0,78,0.00,NA,NA,0.00,WeatherLink_script,2013-10-28 06:01:00,
2013-10-28 02:06:00,43.6,37.8,30.13,NNW,348,0.0,0.0,80,0.00,NA,NA,0.00,WeatherLink_script,2013-10-28 06:06:00,
2013-10-28 02:11:00,43.4,37.6,30.13,NNW,348,0.0,0.0,80,0.00,NA,NA,0.00,WeatherLink_script,2013-10-28 06:11:00,
2013-10-28 02:16:00,43.4,37.7,30.13,NNW,348,0.0,0.0,80,0.00,NA,NA,0.00,WeatherLink_script,2013-10-28 06:16:00,
2013-10-28 02:21:00,43.3,37.9,30.13,NNW,348,0.0,0.0,81,0.00,NA,NA,0.00,WeatherLink_script,2013-10-28 06:21:00,
2013-10-28 02:26:00,43.4,38.0,30.13,NNW,348,0.0,0.0,81,0.00,NA,NA,0.00,WeatherLink_script,2013-10-28 06:26:00,
2013-10-28 02:31:00,43.4,37.9,30.13,NNW,348,0.0,0.0,81,0.00,NA,NA,0.00,WeatherLink_script,2013-10-28 06:31:00,
2013-10-28 02:36:00,43.3,37.6,30.12,NNW,347,0.0,0.0,80,0.00,NA,NA,0.00,WeatherLink_script,2013-10-28 06:36:00,
2013-10-28 02:41:00,43.4,38.3,30.12,NNW,348,0.2,1.0,82,0.00,NA,NA,0.00,WeatherLink_script,2013-10-28 06:41:00,
2013-10-28 02:46:00,43.6,38.2,30.13,NNW,348,0.0,0.0,81,0.00,NA,NA,0.00,WeatherLink_script,2013-10-28 06:46:00,
2013-10-28 02:51:00,43.8,38.1,30.13,NNW,348,0.0,0.0,80,0.00,NA,NA,0.00,WeatherLink_script,2013-10-28 06:51:00,
2013-10-28 02:56:00,44.0,37.9,30.12,NNW,348,0.0,0.0,79,0.00,NA,NA,0.00,WeatherLink_script,2013-10-28 06:56:00,
2013-10-28 03:01:00,44.0,37.9,30.13,NNW,348,0.0,0.0,79,0.00,NA,NA,0.00,WeatherLink_script,2013-10-28 07:01:00,
2013-10-28 03:06:00,43.9,37.8,30.12,NNW,348,0.0,0.0,79,0.00,NA,NA,0.00,WeatherLink_script,2013-10-28 07:06:00,
2013-10-28 03:11:00,44.0,38.2,30.12,NNW,348,0.1,1.0,80,0.00,NA,NA,0.00,WeatherLink_script,2013-10-28 07:11:00,
2013-10-28 03:16:00,44.0,37.9,30.12,NNW,348,0.0,0.0,79,0.00,NA,NA,0.00,WeatherLink_script,2013-10-28 07:16:00,
2013-10-28 03:21:00,44.0,37.9,30.13,NNW,348,0.0,0.0,79,0.00,NA,NA,0.00,WeatherLink_script,2013-10-28 07:21:00,
2013-10-28 03:26:00,44.0,37.6,30.13,NNW,347,0.0,0.0,78,0.00,NA,NA,0.00,WeatherLink_script,2013-10-28 07:26:00,
2013-10-28 03:31:00,44.0,38.2,30.13,NNW,348,0.0,0.0,80,0.00,NA,NA,0.00,WeatherLink_script,2013-10-28 07:31:00,
2013-10-28 03:36:00,44.0,37.6,30.13,NNW,348,0.0,0.0,78,0.00,NA,NA,0.00,WeatherLink_script,2013-10-28 07:36:00,
2013-10-28 03:41:00,43.9,37.5,30.13,NNW,348,0.0,0.0,78,0.00,NA,NA,0.00,WeatherLink_script,2013-10-28 07:41:00,
2013-10-28 03:46:00,43.8,37.4,30.12,NNW,348,0.0,0.0,78,0.00,NA,NA,0.00,WeatherLink_script,2013-10-28 07:46:00,
2013-10-28 03:51:00,43.7,37.3,30.12,NNW,348,0.0,0.0,78,0.00,NA,NA,0.00,WeatherLink_script,2013-10-28 07:51:00,
2013-10-28 03:56:00,43.6,37.2,30.12,NNW,348,0.0,0.0,78,0.00,NA,NA,0.00,WeatherLink_script,2013-10-28 07:56:00,
2013-10-28 04:01:00,43.6,37.5,30.12,NNW,348,0.0,0.0,79,0.00,NA,NA,0.00,WeatherLink_script,2013-10-28 08:01:00,
2013-10-28 04:06:00,43.6,37.6,30.13,NNW,348,0.0,0.0,79,0.00,NA,NA,0.00,WeatherLink_script,2013-10-28 08:06:00,
2013-10-28 04:11:00,43.7,37.3,30.13,NNW,348,0.0,0.0,78,0.00,NA,NA,0.00,WeatherLink_script,2013-10-28 08:11:00,
2013-10-28 04:16:00,43.6,37.5,30.12,NNW,348,0.0,0.0,79,0.00,NA,NA,0.00,WeatherLink_script,2013-10-28 08:16:00,
2013-10-28 04:21:00,43.6,37.5,30.13,NNW,348,0.0,0.0,79,0.00,NA,NA,0.00,WeatherLink_script,2013-10-28 08:21:00,
2013-10-28 04:26:00,43.7,37.6,30.13,NNW,348,0.0,0.0,79,0.00,NA,NA,0.00,WeatherLink_script,2013-10-28 08:26:00,
2013-10-28 04:31:00,43.9,37.8,30.13,NNW,348,0.0,0.0,79,0.00,NA,NA,0.00,WeatherLink_script,2013-10-28 08:31:00,
2013-10-28 04:36:00,43.9,37.8,30.13,NNW,348,0.2,1.0,79,0.00,NA,NA,0.00,WeatherLink_script,2013-10-28 08:36:00,
2013-10-28 04:41:00,44.0,37.9,30.13,NNW,348,0.0,0.0,79,0.00,NA,NA,0.00,WeatherLink_script,2013-10-28 08:41:00,
2013-10-28 04:46:00,44.0,37.9,30.14,NNW,348,0.1,1.0,79,0.00,NA,NA,0.00,WeatherLink_script,2013-10-28 08:46:00,
2013-10-28 04:51:00,44.0,37.9,30.14,NNW,348,0.0,0.0,79,0.00,NA,NA,0.00,WeatherLink_script,2013-10-28 08:51:00,
2013-10-28 04:56:00,43.9,38.2,30.14,NNW,348,0.0,0.0,80,0.00,NA,NA,0.00,WeatherLink_script,2013-10-28 08:56:00,
2013-10-28 05:01:00,43.9,37.8,30.14,NNW,348,0.0,0.0,79,0.00,NA,NA,0.00,WeatherLink_script,2013-10-28 09:01:00,
2013-10-28 05:06:00,43.7,37.6,30.14,NNW,348,0.0,0.0,79,0.00,NA,NA,0.00,WeatherLink_script,2013-10-28 09:06:00,
2013-10-28 05:11:00,43.6,37.5,30.14,NNW,348,0.1,1.0,79,0.00,NA,NA,0.00,WeatherLink_script,2013-10-28 09:11:00,
2013-10-28 05:16:00,43.6,37.5,30.14,NNW,348,0.0,0.0,79,0.00,NA,NA,0.00,WeatherLink_script,2013-10-28 09:16:00,
2013-10-28 05:21:00,43.4,37.4,30.14,NNW,348,0.0,0.0,79,0.00,NA,NA,0.00,WeatherLink_script,2013-10-28 09:21:00,
2013-10-28 05:26:00,43.4,37.3,30.14,NNW,348,0.0,0.0,79,0.00,NA,NA,0.00,WeatherLink_script,2013-10-28 09:26:00,
2013-10-28 05:31:00,43.2,37.5,30.15,NNW,348,0.0,0.0,80,0.00,NA,NA,0.00,WeatherLink_script,2013-10-28 09:31:00,
2013-10-28 05:36:00,43.2,37.5,30.14,NNW,348,0.0,0.0,80,0.00,NA,NA,0.00,WeatherLink_script,2013-10-28 09:36:00,
2013-10-28 05:41:00,43.0,37.3,30.15,NNW,348,0.0,0.0,80,0.00,NA,NA,0.00,WeatherLink_script,2013-10-28 09:41:00,
2013-10-28 05:46:00,43.0,37.2,30.15,NNW,348,0.0,0.0,80,0.00,NA,NA,0.00,WeatherLink_script,2013-10-28 09:46:00,
2013-10-28 05:51:00,42.9,37.2,30.15,NNW,348,0.0,0.0,80,0.00,NA,NA,0.00,WeatherLink_script,2013-10-28 09:51:00,
2013-10-28 05:56:00,42.9,37.5,30.15,NNW,348,0.3,1.0,81,0.00,NA,NA,0.00,WeatherLink_script,2013-10-28 09:56:00,
2013-10-28 06:01:00,42.9,37.8,30.15,NNW,348,0.1,1.0,82,0.00,NA,NA,0.00,WeatherLink_script,2013-10-28 10:01:00,
2013-10-28 06:06:00,42.9,37.8,30.15,NNW,348,0.4,2.0,82,0.00,NA,NA,0.00,WeatherLink_script,2013-10-28 10:06:00,
2013-10-28 06:11:00,42.9,37.8,30.15,NNW,348,0.5,1.0,82,0.00,NA,NA,0.00,WeatherLink_script,2013-10-28 10:11:00,
2013-10-28 06:16:00,42.9,37.8,30.15,NNW,348,0.8,2.0,82,0.00,NA,NA,0.00,WeatherLink_script,2013-10-28 10:16:00,
2013-10-28 06:21:00,42.8,37.7,30.15,NNW,348,1.5,3.0,82,0.00,NA,NA,0.00,WeatherLink_script,2013-10-28 10:21:00,
2013-10-28 06:26:00,42.7,37.6,30.15,NNW,348,0.5,1.0,82,0.00,NA,NA,0.00,WeatherLink_script,2013-10-28 10:26:00,
2013-10-28 06:31:00,42.6,37.5,30.16,NNW,348,0.2,1.0,82,0.00,NA,NA,0.00,WeatherLink_script,2013-10-28 10:31:00,
2013-10-28 06:36:00,42.4,37.3,30.16,NNW,348,0.0,0.0,82,0.00,NA,NA,0.00,WeatherLink_script,2013-10-28 10:36:00,
2013-10-28 06:41:00,42.4,37.3,30.16,NNW,348,0.0,0.0,82,0.00,NA,NA,0.00,WeatherLink_script,2013-10-28 10:41:00,
2013-10-28 06:46:00,42.6,37.5,30.16,NNW,348,0.0,0.0,82,0.00,NA,NA,0.00,WeatherLink_script,2013-10-28 10:46:00,
2013-10-28 06:51:00,42.6,37.5,30.16,NNW,348,0.0,0.0,82,0.00,NA,NA,0.00,WeatherLink_script,2013-10-28 10:51:00,
2013-10-28 06:56:00,42.6,37.5,30.16,NNW,348,0.0,0.0,82,0.00,NA,NA,0.00,WeatherLink_script,2013-10-28 10:56:00,
2013-10-28 07:01:00,42.6,37.2,30.16,NNW,348,0.0,0.0,81,0.00,NA,NA,0.00,WeatherLink_script,2013-10-28 11:01:00,
2013-10-28 07:06:00,42.4,37.3,30.16,NNW,348,0.0,0.0,82,0.00,NA,NA,0.00,WeatherLink_script,2013-10-28 11:06:00,
2013-10-28 07:11:00,42.3,36.9,30.17,NNW,348,0.0,0.0,81,0.00,NA,NA,0.00,WeatherLink_script,2013-10-28 11:11:00,
2013-10-28 07:16:00,42.3,36.9,30.17,NNW,348,0.0,0.0,81,0.00,NA,NA,0.00,WeatherLink_script,2013-10-28 11:16:00,
2013-10-28 07:21:00,42.4,37.0,30.17,NNW,348,0.1,1.0,81,0.00,NA,NA,0.00,WeatherLink_script,2013-10-28 11:21:00,
2013-10-28 07:26:00,42.6,37.2,30.17,NNW,348,0.0,0.0,81,0.00,NA,NA,0.00,WeatherLink_script,2013-10-28 11:26:00,
2013-10-28 07:31:00,42.7,37.3,30.17,NNW,348,0.2,1.0,81,0.00,NA,NA,0.00,WeatherLink_script,2013-10-28 11:31:00,
2013-10-28 07:36:00,42.7,37.3,30.17,NNW,348,0.1,1.0,81,0.00,NA,NA,0.00,WeatherLink_script,2013-10-28 11:36:00,
2013-10-28 07:41:00,42.9,37.5,30.17,NNW,348,0.0,0.0,81,0.00,NA,NA,0.00,WeatherLink_script,2013-10-28 11:41:00,
2013-10-28 07:46:00,42.9,37.8,30.18,NNW,348,0.0,0.0,82,0.00,NA,NA,0.00,WeatherLink_script,2013-10-28 11:46:00,
2013-10-28 07:51:00,42.9,37.8,30.18,NNW,348,0.0,0.0,82,0.00,NA,NA,0.00,WeatherLink_script,2013-10-28 11:51:00,
2013-10-28 07:56:00,42.9,37.8,30.18,West,268,0.1,1.0,82,0.00,NA,NA,0.00,WeatherLink_script,2013-10-28 11:56:00,
2013-10-28 08:01:00,42.9,37.8,30.19,West,268,0.0,0.0,82,0.00,NA,NA,0.00,WeatherLink_script,2013-10-28 12:01:00,
2013-10-28 08:06:00,42.7,37.6,30.19,West,268,0.0,0.0,82,0.00,NA,NA,0.00,WeatherLink_script,2013-10-28 12:06:00,
2013-10-28 08:11:00,42.7,37.6,30.19,West,268,0.0,0.0,82,0.00,NA,NA,0.00,WeatherLink_script,2013-10-28 12:11:00,
2013-10-28 08:16:00,42.7,37.6,30.19,West,268,0.0,0.0,82,0.00,NA,NA,0.00,WeatherLink_script,2013-10-28 12:16:00,
2013-10-28 08:21:00,42.7,37.6,30.19,West,268,0.0,0.0,82,0.00,NA,NA,0.00,WeatherLink_script,2013-10-28 12:21:00,
2013-10-28 08:26:00,42.8,37.7,30.20,West,268,0.0,0.0,82,0.00,NA,NA,0.00,WeatherLink_script,2013-10-28 12:26:00,
2013-10-28 08:31:00,42.9,37.8,30.20,West,268,0.0,0.0,82,0.00,NA,NA,0.00,WeatherLink_script,2013-10-28 12:31:00,
2013-10-28 08:36:00,43.1,38.0,30.20,West,268,0.0,0.0,82,0.00,NA,NA,0.00,WeatherLink_script,2013-10-28 12:36:00,
2013-10-28 08:41:00,43.1,38.0,30.21,West,268,0.0,0.0,82,0.00,NA,NA,0.00,WeatherLink_script,2013-10-28 12:41:00,
2013-10-28 08:46:00,43.1,37.6,30.21,West,268,0.0,0.0,81,0.00,NA,NA,0.00,WeatherLink_script,2013-10-28 12:46:00,
2013-10-28 08:51:00,43.2,38.0,30.21,West,268,0.0,0.0,82,0.00,NA,NA,0.00,WeatherLink_script,2013-10-28 12:51:00,
2013-10-28 08:56:00,43.2,38.1,30.21,West,268,0.0,0.0,82,0.00,NA,NA,0.00,WeatherLink_script,2013-10-28 12:56:00,
2013-10-28 09:01:00,43.2,38.1,30.21,West,268,0.0,0.0,82,0.00,NA,NA,0.00,WeatherLink_script,2013-10-28 13:01:00,
2013-10-28 09:06:00,43.2,38.1,30.21,West,262,0.0,0.0,82,0.00,NA,NA,0.00,WeatherLink_script,2013-10-28 13:06:00,
2013-10-28 09:11:00,43.3,38.2,30.22,South,175,0.0,0.0,82,0.00,NA,NA,0.00,WeatherLink_script,2013-10-28 13:11:00,
2013-10-28 09:16:00,43.4,38.0,30.22,South,175,0.0,0.0,81,0.00,NA,NA,0.00,WeatherLink_script,2013-10-28 13:16:00,
2013-10-28 09:21:00,43.6,38.2,30.22,South,175,0.0,0.0,81,0.00,NA,NA,0.00,WeatherLink_script,2013-10-28 13:21:00,
2013-10-28 09:26:00,43.7,37.9,30.22,South,175,0.0,0.0,80,0.00,NA,NA,0.00,WeatherLink_script,2013-10-28 13:26:00,
2013-10-28 09:31:00,44.0,38.2,30.22,South,175,0.0,0.0,80,0.00,NA,NA,0.00,WeatherLink_script,2013-10-28 13:31:00,
2013-10-28 09:36:00,44.3,38.2,30.22,South,175,0.0,0.0,79,0.00,NA,NA,0.00,WeatherLink_script,2013-10-28 13:36:00,
2013-10-28 09:41:00,44.6,38.2,30.23,South,175,0.0,0.0,78,0.00,NA,NA,0.00,WeatherLink_script,2013-10-28 13:41:00,
2013-10-28 09:46:00,44.9,37.8,30.23,NE,39,1.5,3.0,76,0.00,NA,NA,0.00,WeatherLink_script,2013-10-28 13:46:00,
2013-10-28 09:51:00,45.4,39.3,30.23,NE,39,0.0,0.0,79,0.00,NA,NA,0.00,WeatherLink_script,2013-10-28 13:51:00,
2013-10-28 09:56:00,45.7,38.9,30.24,NE,38,1.7,3.0,77,0.00,NA,NA,0.00,WeatherLink_script,2013-10-28 13:56:00,
2013-10-28 10:01:00,45.9,37.4,30.23,NE,36,0.3,2.0,72,0.00,NA,NA,0.00,WeatherLink_script,2013-10-28 14:01:00,
2013-10-28 10:06:00,46.1,37.6,30.23,NE,37,0.3,2.0,72,0.00,NA,NA,0.00,WeatherLink_script,2013-10-28 14:06:00,
2013-10-28 10:11:00,46.4,37.5,30.24,NE,37,0.7,1.0,71,0.00,NA,NA,0.00,WeatherLink_script,2013-10-28 14:11:00,
2013-10-28 10:16:00,46.6,37.3,30.24,NE,37,0.0,0.0,70,0.00,NA,NA,0.00,WeatherLink_script,2013-10-28 14:16:00,
2013-10-28 10:21:00,47.0,37.3,30.24,NE,37,0.0,0.0,69,0.00,NA,NA,0.00,WeatherLink_script,2013-10-28 14:21:00,
2013-10-28 10:26:00,47.4,37.7,30.23,NE,37,0.0,0.0,69,0.00,NA,NA,0.00,WeatherLink_script,2013-10-28 14:26:00,
2013-10-28 10:31:00,48.0,39.1,30.24,NE,37,0.0,0.0,71,0.00,NA,NA,0.00,WeatherLink_script,2013-10-28 14:31:00,
2013-10-28 10:36:00,48.3,41.1,30.24,NE,37,0.2,1.0,76,0.00,NA,NA,0.00,WeatherLink_script,2013-10-28 14:36:00,
2013-10-28 10:41:00,48.7,40.4,30.24,NE,37,0.0,0.0,73,0.00,NA,NA,0.00,WeatherLink_script,2013-10-28 14:41:00,
2013-10-28 10:42:00,48.9,39.9,30.23,NE,37,0.1,1.0,71,0.00,NA,NA,0.00,WeatherLink_script,2013-10-28 14:42:00,
2013-10-28 10:46:00,48.9,39.9,30.23,NE,37,0.1,1.0,71,0.00,NA,NA,0.00,WeatherLink_script,2013-10-28 14:46:00,
2013-10-28 10:51:00,48.9,39.9,30.23,NE,37,0.1,1.0,71,0.00,NA,NA,0.00,WeatherLink_script,2013-10-28 14:51:00,
2013-10-28 16:57:00,63.3,53.7,30.18,ENE,58,0.0,0.0,71,0.00,NA,NA,0.00,WeatherLink_script,2013-10-28 20:57:00,
2013-10-28 17:02:00,63.1,53.5,30.18,ENE,59,0.0,0.0,71,0.00,NA,NA,0.00,WeatherLink_script,2013-10-28 21:02:00,
2013-10-28 17:07:00,62.8,53.2,30.19,ENE,59,0.0,0.0,71,0.00,NA,NA,0.00,WeatherLink_script,2013-10-28 21:07:00,
2013-10-28 17:12:00,62.4,52.9,30.19,ENE,59,0.0,0.0,71,0.00,NA,NA,0.00,WeatherLink_script,2013-10-28 21:12:00,
2013-10-28 17:17:00,62.2,48.6,30.18,ENE,58,0.0,0.0,61,0.00,NA,NA,0.00,WeatherLink_script,2013-10-28 21:17:00,
2013-10-28 17:22:00,61.6,38.9,30.18,ENE,59,0.0,0.0,43,0.00,NA,NA,0.00,WeatherLink_script,2013-10-28 21:22:00,
2013-10-28 17:27:00,61.3,38.6,30.18,ENE,59,0.0,0.0,43,0.00,NA,NA,0.00,WeatherLink_script,2013-10-28 21:27:00,
2013-10-28 17:32:00,60.8,38.1,30.19,ENE,58,0.0,0.0,43,0.00,NA,NA,0.00,WeatherLink_script,2013-10-28 21:32:00,
2013-10-28 17:37:00,60.3,37.7,30.18,ENE,59,0.0,0.0,43,0.00,NA,NA,0.00,WeatherLink_script,2013-10-28 21:37:00,
2013-10-28 17:42:00,59.8,37.3,30.18,ENE,59,0.0,0.0,43,0.00,NA,NA,0.00,WeatherLink_script,2013-10-28 21:42:00,
2013-10-28 17:47:00,59.5,37.0,30.19,ENE,58,0.0,0.0,43,0.00,NA,NA,0.00,WeatherLink_script,2013-10-28 21:47:00,
2013-10-28 17:52:00,59.2,36.7,30.19,ENE,59,0.0,0.0,43,0.00,NA,NA,0.00,WeatherLink_script,2013-10-28 21:52:00,
2013-10-28 17:57:00,58.9,36.4,30.18,ENE,59,0.0,0.0,43,0.00,NA,NA,0.00,WeatherLink_script,2013-10-28 21:57:00,
2013-10-28 18:02:00,58.8,36.3,30.19,ENE,59,0.0,0.0,43,0.00,NA,NA,0.00,WeatherLink_script,2013-10-28 22:02:00,
2013-10-28 18:07:00,58.5,36.1,30.19,ENE,59,0.0,0.0,43,0.00,NA,NA,0.00,WeatherLink_script,2013-10-28 22:07:00,
2013-10-28 18:12:00,58.2,35.8,30.19,ENE,59,0.0,0.0,43,0.00,NA,NA,0.00,WeatherLink_script,2013-10-28 22:12:00,
2013-10-28 18:17:00,57.7,35.4,30.19,ENE,59,0.0,0.0,43,0.00,NA,NA,0.00,WeatherLink_script,2013-10-28 22:17:00,
2013-10-28 18:22:00,57.4,35.1,30.19,ENE,59,0.0,0.0,43,0.00,NA,NA,0.00,WeatherLink_script,2013-10-28 22:22:00,
2013-10-28 18:27:00,57.1,34.8,30.19,ENE,58,0.0,0.0,43,0.00,NA,NA,0.00,WeatherLink_script,2013-10-28 22:27:00,
2013-10-28 18:32:00,56.8,34.6,30.19,ENE,59,0.0,0.0,43,0.00,NA,NA,0.00,WeatherLink_script,2013-10-28 22:32:00,
2013-10-28 18:37:00,56.5,34.3,30.19,ENE,59,0.0,0.0,43,0.00,NA,NA,0.00,WeatherLink_script,2013-10-28 22:37:00,
2013-10-28 18:42:00,56.2,34.0,30.20,ENE,59,0.0,0.0,43,0.00,NA,NA,0.00,WeatherLink_script,2013-10-28 22:42:00,
2013-10-28 18:47:00,56.1,33.9,30.20,ENE,59,0.0,0.0,43,0.00,NA,NA,0.00,WeatherLink_script,2013-10-28 22:47:00,
2013-10-28 18:52:00,55.9,33.7,30.20,ENE,58,0.0,0.0,43,0.00,NA,NA,0.00,WeatherLink_script,2013-10-28 22:52:00,
2013-10-28 18:57:00,55.6,33.5,30.20,ENE,59,0.0,0.0,43,0.00,NA,NA,0.00,WeatherLink_script,2013-10-28 22:57:00,
2013-10-28 19:02:00,55.3,33.2,30.21,ENE,58,0.0,0.0,43,0.00,NA,NA,0.00,WeatherLink_script,2013-10-28 23:02:00,
2013-10-28 19:07:00,55.2,33.1,30.21,ENE,59,0.0,0.0,43,0.00,NA,NA,0.00,WeatherLink_script,2013-10-28 23:07:00,
2013-10-28 19:12:00,54.9,32.8,30.22,ENE,59,0.0,0.0,43,0.00,NA,NA,0.00,WeatherLink_script,2013-10-28 23:12:00,
2013-10-28 19:17:00,54.9,32.8,30.21,ENE,59,0.0,0.0,43,0.00,NA,NA,0.00,WeatherLink_script,2013-10-28 23:17:00,
2013-10-28 19:22:00,55.0,32.9,30.22,ENE,58,0.0,0.0,43,0.00,NA,NA,0.00,WeatherLink_script,2013-10-28 23:22:00,
2013-10-28 19:27:00,55.0,43.5,30.22,ENE,58,0.0,0.0,65,0.00,NA,NA,0.00,WeatherLink_script,2013-10-28 23:27:00,
2013-10-28 19:32:00,55.2,43.6,30.22,ENE,58,0.0,0.0,65,0.00,NA,NA,0.00,WeatherLink_script,2013-10-28 23:32:00,
2013-10-28 19:37:00,55.2,43.6,30.22,ENE,59,0.0,0.0,65,0.00,NA,NA,0.00,WeatherLink_script,2013-10-28 23:37:00,
2013-10-28 19:42:00,55.2,43.6,30.22,ENE,59,0.0,0.0,65,0.00,NA,NA,0.00,WeatherLink_script,2013-10-28 23:42:00,
2013-10-28 19:47:00,55.2,43.6,30.22,ENE,58,0.1,1.0,65,0.00,NA,NA,0.00,WeatherLink_script,2013-10-28 23:47:00,
2013-10-28 19:52:00,55.2,43.6,30.22,ENE,58,1.4,3.0,65,0.00,NA,NA,0.00,WeatherLink_script,2013-10-28 23:52:00,
2013-10-28 19:57:00,55.3,43.7,30.22,ENE,59,0.1,1.0,65,0.00,NA,NA,0.00,WeatherLink_script,2013-10-28 23:57:00,
2013-10-28 20:02:00,55.3,43.3,30.22,ENE,58,0.4,2.0,64,0.00,NA,NA,0.00,WeatherLink_script,2013-10-29 00:02:00,
2013-10-28 20:07:00,55.3,43.7,30.22,ENE,58,0.0,0.0,65,0.00,NA,NA,0.00,WeatherLink_script,2013-10-29 00:07:00,
2013-10-28 20:12:00,55.2,43.2,30.22,ENE,58,0.0,0.0,64,0.00,NA,NA,0.00,WeatherLink_script,2013-10-29 00:12:00,
2013-10-28 20:17:00,55.2,43.2,30.22,ENE,59,0.2,1.0,64,0.00,NA,NA,0.00,WeatherLink_script,2013-10-29 00:17:00,
2013-10-28 20:22:00,55.2,43.2,30.23,ENE,59,0.8,3.0,64,0.00,NA,NA,0.00,WeatherLink_script,2013-10-29 00:22:00,
2013-10-28 20:27:00,55.2,43.2,30.23,ENE,59,0.4,1.0,64,0.00,NA,NA,0.00,WeatherLink_script,2013-10-29 00:27:00,
2013-10-28 20:32:00,55.2,43.2,30.23,ENE,58,0.8,2.0,64,0.00,NA,NA,0.00,WeatherLink_script,2013-10-29 00:32:00,
2013-10-28 20:37:00,55.1,43.1,30.23,ENE,59,0.1,1.0,64,0.00,NA,NA,0.00,WeatherLink_script,2013-10-29 00:37:00,
2013-10-28 20:42:00,55.0,43.0,30.22,ENE,58,0.5,1.0,64,0.00,NA,NA,0.00,WeatherLink_script,2013-10-29 00:42:00,
2013-10-28 20:47:00,54.9,43.0,30.23,ENE,59,0.0,0.0,64,0.00,NA,NA,0.00,WeatherLink_script,2013-10-29 00:47:00,
2013-10-28 20:52:00,54.9,43.0,30.22,ENE,58,0.3,1.0,64,0.00,NA,NA,0.00,WeatherLink_script,2013-10-29 00:52:00,
2013-10-28 20:57:00,54.7,43.2,30.23,ENE,59,0.0,0.0,65,0.00,NA,NA,0.00,WeatherLink_script,2013-10-29 00:57:00,
2013-10-28 21:02:00,54.6,43.5,30.23,ENE,59,0.0,0.0,66,0.00,NA,NA,0.00,WeatherLink_script,2013-10-29 01:02:00,
2013-10-28 21:07:00,54.3,43.2,30.23,ENE,59,0.2,1.0,66,0.00,NA,NA,0.00,WeatherLink_script,2013-10-29 01:07:00,
2013-10-28 21:12:00,54.3,43.2,30.23,ENE,58,0.8,3.0,66,0.00,NA,NA,0.00,WeatherLink_script,2013-10-29 01:12:00,
2013-10-28 21:17:00,54.2,43.1,30.24,ENE,58,0.5,2.0,66,0.00,NA,NA,0.00,WeatherLink_script,2013-10-29 01:17:00,
2013-10-28 21:22:00,54.0,43.3,30.23,ENE,59,0.0,0.0,67,0.00,NA,NA,0.00,WeatherLink_script,2013-10-29 01:22:00,
2013-10-28 21:27:00,53.7,43.4,30.23,ENE,59,0.0,0.0,68,0.00,NA,NA,0.00,WeatherLink_script,2013-10-29 01:27:00,
2013-10-28 21:32:00,53.4,43.5,30.23,ENE,59,0.0,0.0,69,0.00,NA,NA,0.00,WeatherLink_script,2013-10-29 01:32:00,
2013-10-28 21:37:00,53.2,43.3,30.24,ENE,59,0.1,1.0,69,0.00,NA,NA,0.00,WeatherLink_script,2013-10-29 01:37:00,
2013-10-28 21:42:00,52.8,43.3,30.24,NE,37,0.7,2.0,70,0.00,NA,NA,0.00,WeatherLink_script,2013-10-29 01:42:00,
2013-10-28 21:47:00,52.7,43.2,30.24,NNE,28,1.5,3.0,70,0.00,NA,NA,0.00,WeatherLink_script,2013-10-29 01:47:00,
2013-10-28 21:52:00,52.6,43.4,30.25,North,0,0.0,0.0,71,0.00,NA,NA,0.00,WeatherLink_script,2013-10-29 01:52:00,
2013-10-28 21:57:00,52.3,43.5,30.25,North,0,0.0,0.0,72,0.00,NA,NA,0.00,WeatherLink_script,2013-10-29 01:57:00,
2013-10-28 22:02:00,52.0,43.3,30.25,North,0,0.0,0.0,72,0.00,NA,NA,0.00,WeatherLink_script,2013-10-29 02:02:00,
2013-10-28 22:07:00,51.8,43.4,30.25,North,0,0.0,0.0,73,0.00,NA,NA,0.00,WeatherLink_script,2013-10-29 02:07:00,
2013-10-28 22:12:00,51.7,43.7,30.25,North,0,0.0,0.0,74,0.00,NA,NA,0.00,WeatherLink_script,2013-10-29 02:12:00,
2013-10-28 22:17:00,51.5,43.5,30.26,North,359,0.5,2.0,74,0.00,NA,NA,0.00,WeatherLink_script,2013-10-29 02:17:00,
2013-10-28 22:22:00,51.4,43.4,30.25,North,0,0.2,1.0,74,0.00,NA,NA,0.00,WeatherLink_script,2013-10-29 02:22:00,
2013-10-28 22:27:00,51.4,43.4,30.26,North,359,0.0,0.0,74,0.00,NA,NA,0.00,WeatherLink_script,2013-10-29 02:27:00,
2013-10-28 22:32:00,51.4,43.0,30.25,North,0,0.0,0.0,73,0.00,NA,NA,0.00,WeatherLink_script,2013-10-29 02:32:00,
2013-10-28 22:37:00,51.3,42.6,30.25,North,0,0.0,0.0,72,0.00,NA,NA,0.00,WeatherLink_script,2013-10-29 02:37:00,
2013-10-28 22:42:00,51.3,42.6,30.25,North,0,0.1,1.0,72,0.00,NA,NA,0.00,WeatherLink_script,2013-10-29 02:42:00,
2013-10-28 22:47:00,51.3,43.0,30.26,North,0,0.0,0.0,73,0.00,NA,NA,0.00,WeatherLink_script,2013-10-29 02:47:00,
2013-10-28 22:52:00,51.2,42.9,30.26,North,359,0.1,1.0,73,0.00,NA,NA,0.00,WeatherLink_script,2013-10-29 02:52:00,
2013-10-28 22:57:00,51.4,43.0,30.25,North,0,0.0,0.0,73,0.00,NA,NA,0.00,WeatherLink_script,2013-10-29 02:57:00,
2013-10-28 23:02:00,51.2,43.2,30.25,North,359,0.4,1.0,74,0.00,NA,NA,0.00,WeatherLink_script,2013-10-29 03:02:00,
2013-10-28 23:07:00,51.1,43.1,30.25,North,359,0.2,1.0,74,0.00,NA,NA,0.00,WeatherLink_script,2013-10-29 03:07:00,
2013-10-28 23:12:00,50.8,43.2,30.25,North,0,0.0,0.0,75,0.00,NA,NA,0.00,WeatherLink_script,2013-10-29 03:12:00,
2013-10-28 23:17:00,50.6,43.0,30.25,North,0,0.0,0.0,75,0.00,NA,NA,0.00,WeatherLink_script,2013-10-29 03:17:00,
2013-10-28 23:22:00,50.4,43.2,30.25,North,359,0.0,0.0,76,0.00,NA,NA,0.00,WeatherLink_script,2013-10-29 03:22:00,
2013-10-28 23:27:00,50.3,43.0,30.25,North,359,0.2,1.0,76,0.00,NA,NA,0.00,WeatherLink_script,2013-10-29 03:27:00,
2013-10-28 23:32:00,50.2,42.9,30.26,North,0,0.0,0.0,76,0.00,NA,NA,0.00,WeatherLink_script,2013-10-29 03:32:00,
2013-10-28 23:37:00,49.9,43.0,30.26,North,359,0.1,1.0,77,0.00,NA,NA,0.00,WeatherLink_script,2013-10-29 03:37:00,
2013-10-28 23:42:00,49.6,43.1,30.26,North,0,0.0,0.0,78,0.00,NA,NA,0.00,WeatherLink_script,2013-10-29 03:42:00,
2013-10-28 23:47:00,49.5,42.9,30.26,North,0,0.0,0.0,78,0.00,NA,NA,0.00,WeatherLink_script,2013-10-29 03:47:00,
2013-10-28 23:52:00,49.2,43.0,30.26,North,0,0.0,0.0,79,0.00,NA,NA,0.00,WeatherLink_script,2013-10-29 03:52:00,
2013-10-28 23:57:00,49.0,43.1,30.26,North,0,0.0,0.0,80,0.00,NA,NA,0.00,WeatherLink_script,2013-10-29 03:57:00,